sensor_id;sensor_type;location;lat;lon;timestamp;pressure;altitude;pressure_sealevel;temperature;humidity
54022;BME280;39936;51.058;17.220;2023-03-04T00:04:00;101954.70;;;-1.02;100.00
54022;BME280;39936;51.058;17.220;2023-03-04T00:07:42;101947.09;;;-0.99;100.00
54022;BME280;39936;51.058;17.220;2023-03-04T00:11:00;101939.28;;;-0.99;100.00
54022;BME280;39936;51.058;17.220;2023-03-04T00:14:37;101935.47;;;-0.94;100.00
54022;BME280;39936;51.058;17.220;2023-03-04T00:18:34;101932.21;;;-0.93;100.00
54022;BME280;39936;51.058;17.220;2023-03-04T00:26:24;101898.17;;;-1.01;100.00
54022;BME280;39936;51.058;17.220;2023-03-04T00:30:10;101916.09;;;-0.86;100.00
54022;BME280;39936;51.058;17.220;2023-03-04T00:33:30;101912.77;;;-0.83;100.00
54022;BME280;39936;51.058;17.220;2023-03-04T00:36:53;101886.17;;;-0.93;100.00
54022;BME280;39936;51.058;17.220;2023-03-04T00:41:06;101896.66;;;-0.84;100.00
54022;BME280;39936;51.058;17.220;2023-03-04T00:44:56;101862.56;;;-0.82;100.00
54022;BME280;39936;51.058;17.220;2023-03-04T00:48:38;101879.84;;;-0.81;100.00
54022;BME280;39936;51.058;17.220;2023-03-04T00:52:00;101872.53;;;-0.83;100.00
54022;BME280;39936;51.058;17.220;2023-03-04T00:55:38;101860.83;;;-0.81;100.00
54022;BME280;39936;51.058;17.220;2023-03-04T00:59:24;101863.15;;;-0.80;100.00
54022;BME280;39936;51.058;17.220;2023-03-04T01:03:25;101863.31;;;-0.79;100.00
54022;BME280;39936;51.058;17.220;2023-03-04T01:07:04;101859.97;;;-0.77;100.00
54022;BME280;39936;51.058;17.220;2023-03-04T01:14:49;101852.90;;;-0.75;100.00
54022;BME280;39936;51.058;17.220;2023-03-04T01:18:27;101842.40;;;-0.74;100.00
54022;BME280;39936;51.058;17.220;2023-03-04T01:22:12;101833.35;;;-0.73;100.00
54022;BME280;39936;51.058;17.220;2023-03-04T01:26:08;101794.70;;;-0.90;100.00
54022;BME280;39936;51.058;17.220;2023-03-04T01:29:51;101822.99;;;-0.68;100.00
54022;BME280;39936;51.058;17.220;2023-03-04T01:33:50;101813.45;;;-0.68;100.00
54022;BME280;39936;51.058;17.220;2023-03-04T01:37:41;101813.47;;;-0.65;100.00
54022;BME280;39936;51.058;17.220;2023-03-04T01:41:17;101802.35;;;-0.63;100.00
54022;BME280;39936;51.058;17.220;2023-03-04T01:45:14;101808.38;;;-0.61;100.00
54022;BME280;39936;51.058;17.220;2023-03-04T01:49:01;101794.17;;;-0.59;100.00
54022;BME280;39936;51.058;17.220;2023-03-04T01:52:36;101789.95;;;-0.57;100.00
54022;BME280;39936;51.058;17.220;2023-03-04T01:56:35;101778.36;;;-0.57;100.00
54022;BME280;39936;51.058;17.220;2023-03-04T02:00:28;101766.45;;;-0.53;100.00
54022;BME280;39936;51.058;17.220;2023-03-04T02:04:06;101767.41;;;-0.50;100.00
54022;BME280;39936;51.058;17.220;2023-03-04T02:07:51;101765.13;;;-0.47;100.00
54022;BME280;39936;51.058;17.220;2023-03-04T02:11:34;101744.95;;;-0.57;100.00
54022;BME280;39936;51.058;17.220;2023-03-04T02:15:16;101771.69;;;-0.42;100.00
54022;BME280;39936;51.058;17.220;2023-03-04T02:18:47;101768.37;;;-0.41;100.00
54022;BME280;39936;51.058;17.220;2023-03-04T02:22:09;101767.45;;;-0.38;100.00
54022;BME280;39936;51.058;17.220;2023-03-04T02:26:12;101769.15;;;-0.38;100.00
54022;BME280;39936;51.058;17.220;2023-03-04T02:30:01;101762.49;;;-0.33;100.00
54022;BME280;39936;51.058;17.220;2023-03-04T02:33:44;101765.89;;;-0.30;100.00
54022;BME280;39936;51.058;17.220;2023-03-04T02:37:33;101766.37;;;-0.28;100.00
54022;BME280;39936;51.058;17.220;2023-03-04T02:41:12;101761.66;;;-0.28;100.00
54022;BME280;39936;51.058;17.220;2023-03-04T02:45:00;101757.09;;;-0.26;100.00
54022;BME280;39936;51.058;17.220;2023-03-04T02:48:46;101742.69;;;-0.27;100.00
54022;BME280;39936;51.058;17.220;2023-03-04T02:52:07;101738.52;;;-0.25;100.00
54022;BME280;39936;51.058;17.220;2023-03-04T02:55:47;101744.09;;;-0.24;100.00
54022;BME280;39936;51.058;17.220;2023-03-04T02:59:37;101742.12;;;-0.25;100.00
54022;BME280;39936;51.058;17.220;2023-03-04T03:03:37;101738.63;;;-0.26;100.00
54022;BME280;39936;51.058;17.220;2023-03-04T03:07:46;101728.64;;;-0.26;100.00
54022;BME280;39936;51.058;17.220;2023-03-04T03:11:32;101728.78;;;-0.24;100.00
54022;BME280;39936;51.058;17.220;2023-03-04T03:14:54;101730.91;;;-0.22;100.00
54022;BME280;39936;51.058;17.220;2023-03-04T03:19:06;101732.58;;;-0.24;100.00
54022;BME280;39936;51.058;17.220;2023-03-04T03:22:23;101734.59;;;-0.20;100.00
54022;BME280;39936;51.058;17.220;2023-03-04T03:26:18;101721.74;;;-0.21;100.00
54022;BME280;39936;51.058;17.220;2023-03-04T03:30:28;101720.02;;;-0.21;100.00
54022;BME280;39936;51.058;17.220;2023-03-04T03:37:50;101725.80;;;-0.17;100.00
54022;BME280;39936;51.058;17.220;2023-03-04T03:45:35;101714.22;;;-0.16;100.00
54022;BME280;39936;51.058;17.220;2023-03-04T03:49:14;101696.70;;;-0.29;100.00
54022;BME280;39936;51.058;17.220;2023-03-04T03:53:00;101726.09;;;-0.11;100.00
54022;BME280;39936;51.058;17.220;2023-03-04T03:56:43;101705.65;;;-0.12;100.00
54022;BME280;39936;51.058;17.220;2023-03-04T04:00:20;101705.89;;;-0.10;100.00
54022;BME280;39936;51.058;17.220;2023-03-04T04:04:14;101708.05;;;-0.07;100.00
54022;BME280;39936;51.058;17.220;2023-03-04T04:07:38;101708.89;;;-0.08;100.00
54022;BME280;39936;51.058;17.220;2023-03-04T04:11:40;101695.76;;;-0.07;100.00
54022;BME280;39936;51.058;17.220;2023-03-04T04:15:23;101693.12;;;-0.06;100.00
54022;BME280;39936;51.058;17.220;2023-03-04T04:19:35;101694.98;;;-0.05;100.00
54022;BME280;39936;51.058;17.220;2023-03-04T04:23:40;101695.29;;;-0.02;100.00
54022;BME280;39936;51.058;17.220;2023-03-04T04:27:18;101684.95;;;-0.01;100.00
54022;BME280;39936;51.058;17.220;2023-03-04T04:31:10;101687.65;;;0.02;100.00
54022;BME280;39936;51.058;17.220;2023-03-04T04:34:56;101680.68;;;0.03;100.00
54022;BME280;39936;51.058;17.220;2023-03-04T04:38:31;101688.28;;;0.04;100.00
54022;BME280;39936;51.058;17.220;2023-03-04T04:42:10;101670.05;;;0.06;100.00
54022;BME280;39936;51.058;17.220;2023-03-04T04:45:52;101654.20;;;0.09;99.51
54022;BME280;39936;51.058;17.220;2023-03-04T04:49:41;101656.91;;;0.08;99.37
54022;BME280;39936;51.058;17.220;2023-03-04T04:53:25;101651.70;;;0.12;99.11
54022;BME280;39936;51.058;17.220;2023-03-04T04:56:45;101651.35;;;0.13;99.18
54022;BME280;39936;51.058;17.220;2023-03-04T05:00:21;101643.90;;;0.15;98.64
54022;BME280;39936;51.058;17.220;2023-03-04T05:04:04;101638.43;;;0.15;99.05
54022;BME280;39936;51.058;17.220;2023-03-04T05:07:21;101631.02;;;0.16;98.77
54022;BME280;39936;51.058;17.220;2023-03-04T05:11:10;101579.32;;;-0.07;98.39
54022;BME280;39936;51.058;17.220;2023-03-04T05:14:32;101629.63;;;0.18;97.29
54022;BME280;39936;51.058;17.220;2023-03-04T05:18:20;101633.93;;;0.21;97.76
54022;BME280;39936;51.058;17.220;2023-03-04T05:21:43;101636.40;;;0.23;97.75
54022;BME280;39936;51.058;17.220;2023-03-04T05:25:21;101634.89;;;0.23;98.08
54022;BME280;39936;51.058;17.220;2023-03-04T05:29:51;101646.41;;;0.24;97.93
54022;BME280;39936;51.058;17.220;2023-03-04T05:33:16;101640.55;;;0.25;97.35
54022;BME280;39936;51.058;17.220;2023-03-04T05:36:59;101641.39;;;0.28;97.12
54022;BME280;39936;51.058;17.220;2023-03-04T05:40:58;101633.42;;;0.31;97.25
54022;BME280;39936;51.058;17.220;2023-03-04T05:44:56;101629.23;;;0.34;96.85
54022;BME280;39936;51.058;17.220;2023-03-04T05:48:40;101635.61;;;0.39;96.57
54022;BME280;39936;51.058;17.220;2023-03-04T05:52:27;101636.81;;;0.39;96.35
54022;BME280;39936;51.058;17.220;2023-03-04T05:55:54;101627.84;;;0.42;96.53
54022;BME280;39936;51.058;17.220;2023-03-04T05:59:26;101631.07;;;0.43;96.10
54022;BME280;39936;51.058;17.220;2023-03-04T06:02:49;101625.66;;;0.49;95.58
54022;BME280;39936;51.058;17.220;2023-03-04T06:06:23;101639.16;;;0.54;95.63
54022;BME280;39936;51.058;17.220;2023-03-04T06:10:04;101635.74;;;0.55;95.26
54022;BME280;39936;51.058;17.220;2023-03-04T06:13:26;101627.91;;;0.53;95.13
54022;BME280;39936;51.058;17.220;2023-03-04T06:17:45;101644.85;;;0.60;94.44
54022;BME280;39936;51.058;17.220;2023-03-04T06:21:46;101626.37;;;0.65;94.47
54022;BME280;39936;51.058;17.220;2023-03-04T06:25:26;101636.59;;;0.67;94.98
54022;BME280;39936;51.058;17.220;2023-03-04T06:29:37;101638.95;;;0.67;94.41
54022;BME280;39936;51.058;17.220;2023-03-04T06:33:18;101611.88;;;0.51;94.34
54022;BME280;39936;51.058;17.220;2023-03-04T06:36:58;101641.42;;;0.71;93.65
54022;BME280;39936;51.058;17.220;2023-03-04T06:40:53;101644.62;;;0.74;94.24
54022;BME280;39936;51.058;17.220;2023-03-04T06:48:24;101598.16;;;0.53;94.05
54022;BME280;39936;51.058;17.220;2023-03-04T06:52:11;101626.45;;;0.62;93.77
54022;BME280;39936;51.058;17.220;2023-03-04T06:56:00;101648.26;;;0.79;93.93
54022;BME280;39936;51.058;17.220;2023-03-04T06:59:42;101656.41;;;0.80;94.03
54022;BME280;39936;51.058;17.220;2023-03-04T07:03:07;101660.70;;;0.80;93.84
54022;BME280;39936;51.058;17.220;2023-03-04T07:06:53;101656.78;;;0.75;94.05
54022;BME280;39936;51.058;17.220;2023-03-04T07:10:45;101670.14;;;0.82;93.95
54022;BME280;39936;51.058;17.220;2023-03-04T07:14:30;101668.39;;;0.83;94.04
54022;BME280;39936;51.058;17.220;2023-03-04T07:18:04;101645.78;;;0.65;94.56
54022;BME280;39936;51.058;17.220;2023-03-04T07:25:26;101662.10;;;0.85;93.98
54022;BME280;39936;51.058;17.220;2023-03-04T07:29:28;101666.26;;;0.92;94.39
54022;BME280;39936;51.058;17.220;2023-03-04T07:33:14;101669.09;;;0.94;94.62
54022;BME280;39936;51.058;17.220;2023-03-04T07:36:41;101655.60;;;0.93;94.76
54022;BME280;39936;51.058;17.220;2023-03-04T07:40:32;101663.76;;;0.92;95.65
54022;BME280;39936;51.058;17.220;2023-03-04T07:44:17;101659.09;;;0.92;96.45
54022;BME280;39936;51.058;17.220;2023-03-04T07:47:50;101660.27;;;0.94;96.94
54022;BME280;39936;51.058;17.220;2023-03-04T07:51:36;101652.09;;;0.94;96.97
54022;BME280;39936;51.058;17.220;2023-03-04T07:55:13;101654.98;;;0.95;97.93
54022;BME280;39936;51.058;17.220;2023-03-04T07:59:17;101649.59;;;0.98;99.16
54022;BME280;39936;51.058;17.220;2023-03-04T08:03:06;101639.51;;;0.95;99.85
54022;BME280;39936;51.058;17.220;2023-03-04T08:06:42;101640.85;;;0.97;100.00
54022;BME280;39936;51.058;17.220;2023-03-04T08:10:20;101637.81;;;0.97;100.00
54022;BME280;39936;51.058;17.220;2023-03-04T08:14:16;101633.27;;;0.99;100.00
54022;BME280;39936;51.058;17.220;2023-03-04T08:17:54;101632.70;;;1.01;100.00
54022;BME280;39936;51.058;17.220;2023-03-04T08:21:33;101616.80;;;0.89;100.00
54022;BME280;39936;51.058;17.220;2023-03-04T08:25:18;101631.64;;;1.01;100.00
54022;BME280;39936;51.058;17.220;2023-03-04T08:29:33;101609.57;;;0.82;100.00
54022;BME280;39936;51.058;17.220;2023-03-04T08:32:56;101631.12;;;1.01;100.00
54022;BME280;39936;51.058;17.220;2023-03-04T08:36:30;101624.57;;;1.03;100.00
54022;BME280;39936;51.058;17.220;2023-03-04T08:39:50;101632.43;;;1.04;100.00
54022;BME280;39936;51.058;17.220;2023-03-04T08:43:44;101622.09;;;1.07;100.00
54022;BME280;39936;51.058;17.220;2023-03-04T08:47:04;101623.53;;;1.10;100.00
54022;BME280;39936;51.058;17.220;2023-03-04T08:50:38;101621.95;;;1.16;100.00
54022;BME280;39936;51.058;17.220;2023-03-04T08:54:10;101612.79;;;1.21;100.00
54022;BME280;39936;51.058;17.220;2023-03-04T08:57:51;101620.78;;;1.26;100.00
54022;BME280;39936;51.058;17.220;2023-03-04T09:01:40;101617.06;;;1.29;100.00
54022;BME280;39936;51.058;17.220;2023-03-04T09:05:26;101621.51;;;1.37;100.00
54022;BME280;39936;51.058;17.220;2023-03-04T09:09:15;101613.48;;;1.40;100.00
54022;BME280;39936;51.058;17.220;2023-03-04T09:12:57;101610.42;;;1.43;100.00
54022;BME280;39936;51.058;17.220;2023-03-04T09:16:27;101565.86;;;1.30;100.00
54022;BME280;39936;51.058;17.220;2023-03-04T09:20:37;101613.84;;;1.56;100.00
54022;BME280;39936;51.058;17.220;2023-03-04T09:24:28;101595.84;;;1.52;100.00
54022;BME280;39936;51.058;17.220;2023-03-04T09:28:19;101611.03;;;1.70;100.00
54022;BME280;39936;51.058;17.220;2023-03-04T09:31:38;101624.64;;;1.76;100.00
54022;BME280;39936;51.058;17.220;2023-03-04T09:35:07;101608.53;;;1.84;100.00
54022;BME280;39936;51.058;17.220;2023-03-04T09:38:25;101606.80;;;1.89;100.00
54022;BME280;39936;51.058;17.220;2023-03-04T09:42:11;101602.09;;;1.88;100.00
54022;BME280;39936;51.058;17.220;2023-03-04T09:45:42;101584.71;;;1.84;100.00
54022;BME280;39936;51.058;17.220;2023-03-04T09:49:10;101595.42;;;1.96;100.00
54022;BME280;39936;51.058;17.220;2023-03-04T09:53:21;101597.74;;;1.99;100.00
54022;BME280;39936;51.058;17.220;2023-03-04T10:01:16;101588.11;;;2.06;100.00
54022;BME280;39936;51.058;17.220;2023-03-04T10:05:37;101593.98;;;2.05;100.00
54022;BME280;39936;51.058;17.220;2023-03-04T10:09:29;101585.71;;;2.02;100.00
54022;BME280;39936;51.058;17.220;2023-03-04T10:12:54;101568.84;;;2.01;100.00
54022;BME280;39936;51.058;17.220;2023-03-04T10:16:20;101575.86;;;2.03;100.00
54022;BME280;39936;51.058;17.220;2023-03-04T10:28:27;101558.36;;;2.08;100.00
54022;BME280;39936;51.058;17.220;2023-03-04T10:32:17;101558.48;;;2.09;100.00
54022;BME280;39936;51.058;17.220;2023-03-04T10:42:50;101543.12;;;2.34;100.00
54022;BME280;39936;51.058;17.220;2023-03-04T10:46:57;101543.46;;;2.34;100.00
54022;BME280;39936;51.058;17.220;2023-03-04T10:50:48;101538.75;;;2.41;100.00
54022;BME280;39936;51.058;17.220;2023-03-04T10:54:51;101534.29;;;2.49;100.00
54022;BME280;39936;51.058;17.220;2023-03-04T10:58:44;101524.87;;;2.47;100.00
54022;BME280;39936;51.058;17.220;2023-03-04T11:02:24;101525.87;;;2.49;100.00
54022;BME280;39936;51.058;17.220;2023-03-04T11:05:47;101516.71;;;2.45;100.00
54022;BME280;39936;51.058;17.220;2023-03-04T11:09:28;101520.99;;;2.59;100.00
54022;BME280;39936;51.058;17.220;2023-03-04T11:13:49;101518.79;;;2.72;100.00
54022;BME280;39936;51.058;17.220;2023-03-04T11:18:02;101515.79;;;2.81;100.00
54022;BME280;39936;51.058;17.220;2023-03-04T11:21:22;101516.94;;;2.87;100.00
54022;BME280;39936;51.058;17.220;2023-03-04T11:25:09;101517.52;;;2.85;100.00
54022;BME280;39936;51.058;17.220;2023-03-04T11:42:56;101503.34;;;2.90;100.00
54022;BME280;39936;51.058;17.220;2023-03-04T12:02:59;101491.03;;;3.38;99.21
54022;BME280;39936;51.058;17.220;2023-03-04T12:06:46;101488.67;;;3.40;99.21
54022;BME280;39936;51.058;17.220;2023-03-04T12:17:42;101466.91;;;3.38;97.72
54022;BME280;39936;51.058;17.220;2023-03-04T12:47:43;101453.20;;;3.53;98.29
54022;BME280;39936;51.058;17.220;2023-03-04T12:52:21;101451.16;;;3.58;99.00
54022;BME280;39936;51.058;17.220;2023-03-04T12:55:44;101454.59;;;3.57;99.88
54022;BME280;39936;51.058;17.220;2023-03-04T12:59:15;101444.63;;;3.48;99.59
54022;BME280;39936;51.058;17.220;2023-03-04T13:15:16;101451.15;;;3.55;100.00
54022;BME280;39936;51.058;17.220;2023-03-04T13:23:35;101423.35;;;3.09;100.00
54022;BME280;39936;51.058;17.220;2023-03-04T13:40:22;101445.09;;;3.41;100.00
54022;BME280;39936;51.058;17.220;2023-03-04T13:43:26;101440.05;;;3.34;100.00
54022;BME280;39936;51.058;17.220;2023-03-04T13:47:09;101436.42;;;3.32;100.00
54022;BME280;39936;51.058;17.220;2023-03-04T13:51:02;101429.68;;;3.35;100.00
54022;BME280;39936;51.058;17.220;2023-03-04T13:54:30;101428.12;;;3.36;100.00
54022;BME280;39936;51.058;17.220;2023-03-04T13:58:37;101429.11;;;3.43;100.00
54022;BME280;39936;51.058;17.220;2023-03-04T14:02:19;101421.32;;;3.41;100.00
54022;BME280;39936;51.058;17.220;2023-03-04T14:06:24;101426.02;;;3.42;100.00
54022;BME280;39936;51.058;17.220;2023-03-04T14:14:26;101425.41;;;3.56;100.00
54022;BME280;39936;51.058;17.220;2023-03-04T14:18:32;101416.42;;;3.65;100.00
54022;BME280;39936;51.058;17.220;2023-03-04T14:22:00;101419.97;;;3.70;100.00
54022;BME280;39936;51.058;17.220;2023-03-04T14:25:35;101408.25;;;3.74;100.00
54022;BME280;39936;51.058;17.220;2023-03-04T14:29:30;101408.22;;;3.79;100.00
54022;BME280;39936;51.058;17.220;2023-03-04T14:32:57;101406.87;;;3.83;100.00
54022;BME280;39936;51.058;17.220;2023-03-04T14:45:16;101405.88;;;3.97;100.00
54022;BME280;39936;51.058;17.220;2023-03-04T14:48:52;101397.28;;;3.98;99.66
54022;BME280;39936;51.058;17.220;2023-03-04T14:56:34;101394.32;;;4.06;100.00
54022;BME280;39936;51.058;17.220;2023-03-04T15:00:30;101384.39;;;4.02;99.24
54022;BME280;39936;51.058;17.220;2023-03-04T15:04:04;101385.60;;;3.94;99.19
54022;BME280;39936;51.058;17.220;2023-03-04T15:08:39;101384.34;;;3.83;99.96
54022;BME280;39936;51.058;17.220;2023-03-04T15:12:27;101412.16;;;3.78;100.00
54022;BME280;39936;51.058;17.220;2023-03-04T15:15:46;101408.37;;;3.67;100.00
54022;BME280;39936;51.058;17.220;2023-03-04T15:19:39;101407.45;;;3.60;100.00
54022;BME280;39936;51.058;17.220;2023-03-04T15:23:18;101404.08;;;3.52;100.00
54022;BME280;39936;51.058;17.220;2023-03-04T15:27:29;101402.64;;;3.49;100.00
54022;BME280;39936;51.058;17.220;2023-03-04T15:31:51;101392.20;;;3.36;100.00
54022;BME280;39936;51.058;17.220;2023-03-04T15:35:57;101395.43;;;3.39;100.00
54022;BME280;39936;51.058;17.220;2023-03-04T15:39:58;101393.63;;;3.42;100.00
54022;BME280;39936;51.058;17.220;2023-03-04T15:43:52;101398.52;;;3.46;100.00
54022;BME280;39936;51.058;17.220;2023-03-04T15:47:15;101393.96;;;3.47;100.00
54022;BME280;39936;51.058;17.220;2023-03-04T15:50:54;101394.51;;;3.48;100.00
54022;BME280;39936;51.058;17.220;2023-03-04T15:55:19;101388.41;;;3.47;100.00
54022;BME280;39936;51.058;17.220;2023-03-04T15:59:12;101394.46;;;3.55;100.00
54022;BME280;39936;51.058;17.220;2023-03-04T16:02:32;101361.82;;;3.36;100.00
54022;BME280;39936;51.058;17.220;2023-03-04T16:06:23;101394.68;;;3.60;100.00
54022;BME280;39936;51.058;17.220;2023-03-04T16:09:54;101391.52;;;3.58;100.00
54022;BME280;39936;51.058;17.220;2023-03-04T16:13:38;101393.96;;;3.57;100.00
54022;BME280;39936;51.058;17.220;2023-03-04T16:17:15;101396.01;;;3.58;100.00
54022;BME280;39936;51.058;17.220;2023-03-04T16:25:00;101399.16;;;3.57;100.00
54022;BME280;39936;51.058;17.220;2023-03-04T16:28:37;101395.86;;;3.52;100.00
54022;BME280;39936;51.058;17.220;2023-03-04T16:32:15;101406.52;;;3.54;100.00
54022;BME280;39936;51.058;17.220;2023-03-04T16:36:18;101406.61;;;3.54;100.00
54022;BME280;39936;51.058;17.220;2023-03-04T16:40:36;101418.69;;;3.54;100.00
54022;BME280;39936;51.058;17.220;2023-03-04T16:44:09;101419.01;;;3.53;100.00
54022;BME280;39936;51.058;17.220;2023-03-04T16:47:31;101423.41;;;3.52;100.00
54022;BME280;39936;51.058;17.220;2023-03-04T16:58:53;101397.39;;;3.30;100.00
54022;BME280;39936;51.058;17.220;2023-03-04T17:02:57;101394.96;;;3.31;100.00
54022;BME280;39936;51.058;17.220;2023-03-04T17:06:17;101423.08;;;3.47;100.00
54022;BME280;39936;51.058;17.220;2023-03-04T17:10:07;101401.38;;;3.22;100.00
54022;BME280;39936;51.058;17.220;2023-03-04T17:13:26;101432.28;;;3.45;100.00
54022;BME280;39936;51.058;17.220;2023-03-04T17:17:18;101434.79;;;3.45;100.00
54022;BME280;39936;51.058;17.220;2023-03-04T17:21:24;101442.56;;;3.44;100.00
54022;BME280;39936;51.058;17.220;2023-03-04T17:24:47;101440.95;;;3.41;100.00
54022;BME280;39936;51.058;17.220;2023-03-04T17:28:08;101446.86;;;3.40;100.00
54022;BME280;39936;51.058;17.220;2023-03-04T17:31:47;101444.79;;;3.39;100.00
54022;BME280;39936;51.058;17.220;2023-03-04T17:35:10;101447.19;;;3.37;100.00
54022;BME280;39936;51.058;17.220;2023-03-04T17:43:02;101450.24;;;3.35;100.00
54022;BME280;39936;51.058;17.220;2023-03-04T17:47:01;101447.43;;;3.32;100.00
54022;BME280;39936;51.058;17.220;2023-03-04T17:51:04;101443.16;;;3.27;100.00
54022;BME280;39936;51.058;17.220;2023-03-04T17:54:55;101450.73;;;3.30;100.00
54022;BME280;39936;51.058;17.220;2023-03-04T17:58:52;101456.31;;;3.33;100.00
54022;BME280;39936;51.058;17.220;2023-03-04T18:02:43;101458.33;;;3.32;100.00
54022;BME280;39936;51.058;17.220;2023-03-04T18:05:59;101459.97;;;3.29;100.00
54022;BME280;39936;51.058;17.220;2023-03-04T18:09:27;101464.02;;;3.30;100.00
54022;BME280;39936;51.058;17.220;2023-03-04T18:12:46;101458.52;;;3.29;100.00
54022;BME280;39936;51.058;17.220;2023-03-04T18:16:29;101464.32;;;3.30;100.00
54022;BME280;39936;51.058;17.220;2023-03-04T18:20:05;101467.45;;;3.29;100.00
54022;BME280;39936;51.058;17.220;2023-03-04T18:23:43;101471.07;;;3.30;100.00
54022;BME280;39936;51.058;17.220;2023-03-04T18:27:00;101469.96;;;3.28;100.00
54022;BME280;39936;51.058;17.220;2023-03-04T18:30:37;101470.05;;;3.28;100.00
54022;BME280;39936;51.058;17.220;2023-03-04T18:34:51;101472.21;;;3.28;100.00
54022;BME280;39936;51.058;17.220;2023-03-04T18:38:22;101463.39;;;3.23;100.00
54022;BME280;39936;51.058;17.220;2023-03-04T18:41:40;101468.55;;;3.28;100.00
54022;BME280;39936;51.058;17.220;2023-03-04T18:45:18;101475.35;;;3.29;100.00
54022;BME280;39936;51.058;17.220;2023-03-04T18:49:03;101457.52;;;3.14;99.88
54022;BME280;39936;51.058;17.220;2023-03-04T18:53:12;101474.52;;;3.22;99.78
54022;BME280;39936;51.058;17.220;2023-03-04T19:04:49;101483.15;;;3.25;100.00
54022;BME280;39936;51.058;17.220;2023-03-04T19:08:26;101478.84;;;3.23;100.00
54022;BME280;39936;51.058;17.220;2023-03-04T19:12:06;101482.17;;;3.24;100.00
54022;BME280;39936;51.058;17.220;2023-03-04T19:15:56;101479.30;;;3.19;100.00
54022;BME280;39936;51.058;17.220;2023-03-04T19:19:33;101489.52;;;3.20;100.00
54022;BME280;39936;51.058;17.220;2023-03-04T19:23:28;101505.11;;;3.17;100.00
54022;BME280;39936;51.058;17.220;2023-03-04T19:27:18;101522.15;;;3.07;100.00
54022;BME280;39936;51.058;17.220;2023-03-04T19:31:06;101530.07;;;2.79;97.91
54022;BME280;39936;51.058;17.220;2023-03-04T19:35:27;101529.96;;;2.58;95.03
54022;BME280;39936;51.058;17.220;2023-03-04T19:38:46;101531.84;;;2.42;91.76
54022;BME280;39936;51.058;17.220;2023-03-04T19:42:49;101528.70;;;2.38;91.11
54022;BME280;39936;51.058;17.220;2023-03-04T19:47:12;101535.91;;;2.30;89.08
54022;BME280;39936;51.058;17.220;2023-03-04T19:50:52;101537.51;;;2.28;89.35
54022;BME280;39936;51.058;17.220;2023-03-04T19:54:08;101541.99;;;2.24;88.90
54022;BME280;39936;51.058;17.220;2023-03-04T19:57:26;101539.40;;;2.17;87.75
54022;BME280;39936;51.058;17.220;2023-03-04T20:01:47;101537.70;;;2.13;87.67
54022;BME280;39936;51.058;17.220;2023-03-04T20:05:32;101550.07;;;2.22;87.38
54022;BME280;39936;51.058;17.220;2023-03-04T20:09:13;101549.67;;;2.21;88.65
54022;BME280;39936;51.058;17.220;2023-03-04T20:12:51;101550.97;;;2.15;88.13
54022;BME280;39936;51.058;17.220;2023-03-04T20:16:11;101547.48;;;2.10;87.09
54022;BME280;39936;51.058;17.220;2023-03-04T20:19:47;101553.67;;;2.09;85.04
54022;BME280;39936;51.058;17.220;2023-03-04T20:23:02;101560.89;;;2.04;81.67
54022;BME280;39936;51.058;17.220;2023-03-04T20:26:43;101560.78;;;2.03;82.80
54022;BME280;39936;51.058;17.220;2023-03-04T20:30:24;101556.23;;;1.99;80.98
54022;BME280;39936;51.058;17.220;2023-03-04T20:33:54;101561.37;;;1.98;79.61
54022;BME280;39936;51.058;17.220;2023-03-04T20:37:47;101519.51;;;1.72;77.92
54022;BME280;39936;51.058;17.220;2023-03-04T20:41:08;101554.84;;;1.91;78.98
54022;BME280;39936;51.058;17.220;2023-03-04T20:44:58;101559.39;;;1.91;79.41
54022;BME280;39936;51.058;17.220;2023-03-04T20:48:17;101555.04;;;1.87;79.92
54022;BME280;39936;51.058;17.220;2023-03-04T20:52:08;101559.29;;;1.85;78.58
54022;BME280;39936;51.058;17.220;2023-03-04T20:56:01;101558.95;;;1.83;78.28
54022;BME280;39936;51.058;17.220;2023-03-04T20:59:39;101565.87;;;1.77;77.08
54022;BME280;39936;51.058;17.220;2023-03-04T21:03:34;101559.35;;;1.73;77.51
54022;BME280;39936;51.058;17.220;2023-03-04T21:07:20;101557.96;;;1.67;76.91
54022;BME280;39936;51.058;17.220;2023-03-04T21:11:13;101553.73;;;1.58;75.55
54022;BME280;39936;51.058;17.220;2023-03-04T21:15:14;101542.98;;;1.46;75.66
54022;BME280;39936;51.058;17.220;2023-03-04T21:19:05;101546.96;;;1.48;74.34
54022;BME280;39936;51.058;17.220;2023-03-04T21:23:26;101564.32;;;1.57;75.61
54022;BME280;39936;51.058;17.220;2023-03-04T21:27:02;101561.09;;;1.47;75.29
54022;BME280;39936;51.058;17.220;2023-03-04T21:30:52;101565.53;;;1.48;75.29
54022;BME280;39936;51.058;17.220;2023-03-04T21:34:44;101562.72;;;1.48;76.41
54022;BME280;39936;51.058;17.220;2023-03-04T21:38:31;101542.96;;;1.33;75.31
54022;BME280;39936;51.058;17.220;2023-03-04T21:41:59;101559.73;;;1.43;75.40
54022;BME280;39936;51.058;17.220;2023-03-04T21:46:00;101565.42;;;1.41;75.11
54022;BME280;39936;51.058;17.220;2023-03-04T21:49:15;101560.99;;;1.41;75.05
54022;BME280;39936;51.058;17.220;2023-03-04T21:52:51;101567.22;;;1.41;76.16
54022;BME280;39936;51.058;17.220;2023-03-04T21:56:29;101568.03;;;1.41;76.99
54022;BME280;39936;51.058;17.220;2023-03-04T22:00:20;101568.84;;;1.40;77.70
54022;BME280;39936;51.058;17.220;2023-03-04T22:03:36;101530.91;;;1.16;78.43
54022;BME280;39936;51.058;17.220;2023-03-04T22:06:55;101570.57;;;1.38;78.68
54022;BME280;39936;51.058;17.220;2023-03-04T22:10:37;101566.09;;;1.36;79.20
54022;BME280;39936;51.058;17.220;2023-03-04T22:14:40;101564.59;;;1.36;79.75